sensor_id;sensor_type;location;lat;lon;timestamp;P1;durP1;ratioP1;P2;durP2;ratioP2
65469;SDS011;52067;50.710;14.492;2023-02-20T00:01:23;53.00;;;21.83;;
65469;SDS011;52067;50.710;14.492;2023-02-20T00:03:49;56.47;;;21.23;;
65469;SDS011;52067;50.710;14.492;2023-02-20T00:06:14;60.45;;;24.42;;
65469;SDS011;52067;50.710;14.492;2023-02-20T00:08:40;59.70;;;22.08;;
65469;SDS011;52067;50.710;14.492;2023-02-20T00:11:06;41.08;;;18.35;;
65469;SDS011;52067;50.710;14.492;2023-02-20T00:13:32;50.80;;;18.48;;
65469;SDS011;52067;50.710;14.492;2023-02-20T00:15:57;44.97;;;17.75;;
65469;SDS011;52067;50.710;14.492;2023-02-20T00:18:22;53.83;;;20.75;;
65469;SDS011;52067;50.710;14.492;2023-02-20T00:20:48;55.80;;;21.65;;
65469;SDS011;52067;50.710;14.492;2023-02-20T00:23:13;61.90;;;22.10;;
65469;SDS011;52067;50.710;14.492;2023-02-20T00:25:39;48.92;;;19.35;;
65469;SDS011;52067;50.710;14.492;2023-02-20T00:28:04;42.75;;;17.00;;
65469;SDS011;52067;50.710;14.492;2023-02-20T00:30:30;55.28;;;21.48;;
65469;SDS011;52067;50.710;14.492;2023-02-20T00:32:55;50.13;;;20.13;;
65469;SDS011;52067;50.710;14.492;2023-02-20T00:35:22;50.15;;;19.48;;
65469;SDS011;52067;50.710;14.492;2023-02-20T00:37:48;43.05;;;16.75;;
65469;SDS011;52067;50.710;14.492;2023-02-20T00:40:15;41.58;;;15.65;;
65469;SDS011;52067;50.710;14.492;2023-02-20T00:42:42;37.17;;;15.55;;
65469;SDS011;52067;50.710;14.492;2023-02-20T00:45:09;35.15;;;14.93;;
65469;SDS011;52067;50.710;14.492;2023-02-20T00:47:35;39.53;;;15.65;;
65469;SDS011;52067;50.710;14.492;2023-02-20T00:50:00;37.50;;;15.75;;
65469;SDS011;52067;50.710;14.492;2023-02-20T00:52:26;35.33;;;15.70;;
65469;SDS011;52067;50.710;14.492;2023-02-20T00:54:51;35.55;;;14.68;;
65469;SDS011;52067;50.710;14.492;2023-02-20T00:57:17;33.22;;;13.70;;
65469;SDS011;52067;50.710;14.492;2023-02-20T00:59:42;42.05;;;16.23;;
65469;SDS011;52067;50.710;14.492;2023-02-20T01:02:08;35.08;;;15.65;;
65469;SDS011;52067;50.710;14.492;2023-02-20T01:04:33;47.38;;;17.80;;
65469;SDS011;52067;50.710;14.492;2023-02-20T01:06:59;45.47;;;17.55;;
65469;SDS011;52067;50.710;14.492;2023-02-20T01:09:24;54.53;;;20.42;;
65469;SDS011;52067;50.710;14.492;2023-02-20T01:11:52;56.35;;;21.25;;
65469;SDS011;52067;50.710;14.492;2023-02-20T01:14:17;46.65;;;17.48;;
65469;SDS011;52067;50.710;14.492;2023-02-20T01:16:43;34.55;;;14.02;;
65469;SDS011;52067;50.710;14.492;2023-02-20T01:19:15;29.98;;;11.30;;
65469;SDS011;52067;50.710;14.492;2023-02-20T01:21:41;33.83;;;12.40;;
65469;SDS011;52067;50.710;14.492;2023-02-20T01:24:06;28.33;;;11.77;;
65469;SDS011;52067;50.710;14.492;2023-02-20T01:26:32;26.77;;;11.65;;
65469;SDS011;52067;50.710;14.492;2023-02-20T01:28:57;21.15;;;10.32;;
65469;SDS011;52067;50.710;14.492;2023-02-20T01:31:22;25.80;;;11.10;;
65469;SDS011;52067;50.710;14.492;2023-02-20T01:33:48;25.20;;;10.52;;
65469;SDS011;52067;50.710;14.492;2023-02-20T01:36:14;26.35;;;12.00;;
65469;SDS011;52067;50.710;14.492;2023-02-20T01:38:40;29.73;;;11.02;;
65469;SDS011;52067;50.710;14.492;2023-02-20T01:41:06;22.27;;;10.85;;
65469;SDS011;52067;50.710;14.492;2023-02-20T01:43:32;29.67;;;11.23;;
65469;SDS011;52067;50.710;14.492;2023-02-20T01:48:52;23.20;;;9.57;;
65469;SDS011;52067;50.710;14.492;2023-02-20T01:51:21;17.48;;;8.48;;
65469;SDS011;52067;50.710;14.492;2023-02-20T01:53:46;17.48;;;8.55;;
65469;SDS011;52067;50.710;14.492;2023-02-20T01:56:12;16.75;;;8.02;;
65469;SDS011;52067;50.710;14.492;2023-02-20T01:58:42;19.42;;;9.27;;
65469;SDS011;52067;50.710;14.492;2023-02-20T02:01:10;22.80;;;8.68;;
65469;SDS011;52067;50.710;14.492;2023-02-20T02:03:39;23.05;;;9.38;;
65469;SDS011;52067;50.710;14.492;2023-02-20T02:06:07;21.45;;;8.82;;
65469;SDS011;52067;50.710;14.492;2023-02-20T02:08:36;17.33;;;7.63;;
65469;SDS011;52067;50.710;14.492;2023-02-20T02:13:28;17.15;;;7.53;;
65469;SDS011;52067;50.710;14.492;2023-02-20T02:16:00;17.50;;;6.65;;
65469;SDS011;52067;50.710;14.492;2023-02-20T02:38:49;13.55;;;6.53;;
65469;SDS011;52067;50.710;14.492;2023-02-20T02:44:00;15.13;;;6.15;;
65469;SDS011;52067;50.710;14.492;2023-02-20T02:46:41;17.35;;;6.88;;
65469;SDS011;52067;50.710;14.492;2023-02-20T02:51:45;16.45;;;6.70;;
65469;SDS011;52067;50.710;14.492;2023-02-20T02:54:19;16.40;;;7.18;;
65469;SDS011;52067;50.710;14.492;2023-02-20T02:56:50;18.98;;;7.05;;
65469;SDS011;52067;50.710;14.492;2023-02-20T02:59:20;17.20;;;7.20;;
65469;SDS011;52067;50.710;14.492;2023-02-20T03:01:55;19.48;;;7.63;;
65469;SDS011;52067;50.710;14.492;2023-02-20T03:04:27;17.13;;;7.10;;
65469;SDS011;52067;50.710;14.492;2023-02-20T03:06:59;16.30;;;6.95;;
65469;SDS011;52067;50.710;14.492;2023-02-20T03:09:41;17.95;;;6.93;;
65469;SDS011;52067;50.710;14.492;2023-02-20T03:12:11;14.80;;;6.43;;
65469;SDS011;52067;50.710;14.492;2023-02-20T03:14:40;12.65;;;6.05;;
65469;SDS011;52067;50.710;14.492;2023-02-20T03:17:36;13.30;;;5.57;;
65469;SDS011;52067;50.710;14.492;2023-02-20T03:20:07;12.07;;;6.13;;
65469;SDS011;52067;50.710;14.492;2023-02-20T03:22:57;14.98;;;6.03;;
65469;SDS011;52067;50.710;14.492;2023-02-20T03:25:35;11.80;;;5.43;;
65469;SDS011;52067;50.710;14.492;2023-02-20T03:28:05;16.85;;;6.80;;
65469;SDS011;52067;50.710;14.492;2023-02-20T03:30:49;16.23;;;7.35;;
65469;SDS011;52067;50.710;14.492;2023-02-20T03:33:24;22.17;;;8.73;;
65469;SDS011;52067;50.710;14.492;2023-02-20T03:36:22;22.98;;;9.27;;
65469;SDS011;52067;50.710;14.492;2023-02-20T03:39:11;23.05;;;9.23;;
65469;SDS011;52067;50.710;14.492;2023-02-20T03:42:02;22.98;;;9.10;;
65469;SDS011;52067;50.710;14.492;2023-02-20T03:44:48;25.10;;;9.90;;
65469;SDS011;52067;50.710;14.492;2023-02-20T03:47:16;17.08;;;7.00;;
65469;SDS011;52067;50.710;14.492;2023-02-20T03:49:43;18.00;;;8.52;;
65469;SDS011;52067;50.710;14.492;2023-02-20T03:52:10;22.67;;;8.70;;
65469;SDS011;52067;50.710;14.492;2023-02-20T03:54:35;17.27;;;7.68;;
65469;SDS011;52067;50.710;14.492;2023-02-20T03:57:03;16.08;;;7.43;;
65469;SDS011;52067;50.710;14.492;2023-02-20T04:02:08;19.33;;;7.22;;
65469;SDS011;52067;50.710;14.492;2023-02-20T04:04:45;14.73;;;6.70;;
65469;SDS011;52067;50.710;14.492;2023-02-20T04:10:06;14.73;;;7.50;;
65469;SDS011;52067;50.710;14.492;2023-02-20T04:12:37;16.10;;;7.97;;
65469;SDS011;52067;50.710;14.492;2023-02-20T04:15:07;14.05;;;7.30;;
65469;SDS011;52067;50.710;14.492;2023-02-20T04:17:41;18.00;;;7.50;;
65469;SDS011;52067;50.710;14.492;2023-02-20T04:20:12;16.83;;;7.75;;
65469;SDS011;52067;50.710;14.492;2023-02-20T04:22:38;18.05;;;8.07;;
65469;SDS011;52067;50.710;14.492;2023-02-20T04:25:20;17.75;;;7.88;;
65469;SDS011;52067;50.710;14.492;2023-02-20T04:27:47;15.60;;;7.50;;
65469;SDS011;52067;50.710;14.492;2023-02-20T04:30:13;20.30;;;8.32;;
65469;SDS011;52067;50.710;14.492;2023-02-20T04:32:38;18.65;;;8.63;;
65469;SDS011;52067;50.710;14.492;2023-02-20T04:35:04;25.50;;;10.02;;
65469;SDS011;52067;50.710;14.492;2023-02-20T04:37:29;18.75;;;8.70;;
65469;SDS011;52067;50.710;14.492;2023-02-20T04:39:55;21.67;;;9.00;;
65469;SDS011;52067;50.710;14.492;2023-02-20T04:42:20;25.27;;;10.88;;
65469;SDS011;52067;50.710;14.492;2023-02-20T04:44:46;27.05;;;10.93;;
65469;SDS011;52067;50.710;14.492;2023-02-20T04:47:12;20.88;;;9.27;;
65469;SDS011;52067;50.710;14.492;2023-02-20T04:49:39;19.23;;;9.55;;
65469;SDS011;52067;50.710;14.492;2023-02-20T04:52:05;19.63;;;8.65;;
65469;SDS011;52067;50.710;14.492;2023-02-20T04:54:30;16.33;;;7.93;;
65469;SDS011;52067;50.710;14.492;2023-02-20T04:56:56;21.27;;;8.43;;
65469;SDS011;52067;50.710;14.492;2023-02-20T04:59:21;17.00;;;8.27;;
65469;SDS011;52067;50.710;14.492;2023-02-20T05:01:47;19.60;;;8.85;;
65469;SDS011;52067;50.710;14.492;2023-02-20T05:04:15;22.15;;;9.00;;
65469;SDS011;52067;50.710;14.492;2023-02-20T05:06:42;18.42;;;8.70;;
65469;SDS011;52067;50.710;14.492;2023-02-20T05:09:09;21.75;;;10.30;;
65469;SDS011;52067;50.710;14.492;2023-02-20T05:11:35;31.40;;;11.77;;
65469;SDS011;52067;50.710;14.492;2023-02-20T05:14:02;29.55;;;10.35;;
65469;SDS011;52067;50.710;14.492;2023-02-20T05:16:28;19.52;;;9.20;;
65469;SDS011;52067;50.710;14.492;2023-02-20T05:18:53;22.75;;;10.25;;
65469;SDS011;52067;50.710;14.492;2023-02-20T05:21:18;18.60;;;9.07;;
65469;SDS011;52067;50.710;14.492;2023-02-20T05:24:02;25.45;;;10.07;;
65469;SDS011;52067;50.710;14.492;2023-02-20T05:26:28;20.15;;;9.23;;
65469;SDS011;52067;50.710;14.492;2023-02-20T05:28:53;21.02;;;9.57;;
65469;SDS011;52067;50.710;14.492;2023-02-20T05:31:19;24.38;;;10.25;;
65469;SDS011;52067;50.710;14.492;2023-02-20T05:33:44;25.40;;;11.07;;
65469;SDS011;52067;50.710;14.492;2023-02-20T05:36:10;21.65;;;10.95;;
65469;SDS011;52067;50.710;14.492;2023-02-20T05:38:35;27.02;;;12.05;;
65469;SDS011;52067;50.710;14.492;2023-02-20T05:41:00;27.75;;;11.60;;
65469;SDS011;52067;50.710;14.492;2023-02-20T05:43:26;23.95;;;11.23;;
65469;SDS011;52067;50.710;14.492;2023-02-20T05:45:51;18.50;;;8.90;;
65469;SDS011;52067;50.710;14.492;2023-02-20T05:48:16;25.70;;;10.45;;
65469;SDS011;52067;50.710;14.492;2023-02-20T05:50:42;18.33;;;9.63;;
65469;SDS011;52067;50.710;14.492;2023-02-20T05:53:07;24.58;;;11.00;;
65469;SDS011;52067;50.710;14.492;2023-02-20T05:55:33;20.33;;;9.80;;
65469;SDS011;52067;50.710;14.492;2023-02-20T05:57:58;25.85;;;10.82;;
65469;SDS011;52067;50.710;14.492;2023-02-20T06:00:23;21.60;;;10.35;;
65469;SDS011;52067;50.710;14.492;2023-02-20T06:02:49;21.08;;;9.85;;
65469;SDS011;52067;50.710;14.492;2023-02-20T06:05:14;25.42;;;11.13;;
65469;SDS011;52067;50.710;14.492;2023-02-20T06:07:44;24.00;;;11.07;;
65469;SDS011;52067;50.710;14.492;2023-02-20T06:10:10;24.30;;;11.30;;
65469;SDS011;52067;50.710;14.492;2023-02-20T06:12:36;24.08;;;11.35;;
65469;SDS011;52067;50.710;14.492;2023-02-20T06:15:02;24.17;;;11.55;;
65469;SDS011;52067;50.710;14.492;2023-02-20T06:17:28;34.47;;;12.07;;
65469;SDS011;52067;50.710;14.492;2023-02-20T06:19:54;22.40;;;10.02;;
65469;SDS011;52067;50.710;14.492;2023-02-20T06:22:20;21.05;;;9.73;;
65469;SDS011;52067;50.710;14.492;2023-02-20T06:24:45;24.42;;;10.60;;
65469;SDS011;52067;50.710;14.492;2023-02-20T06:27:12;26.23;;;11.18;;
65469;SDS011;52067;50.710;14.492;2023-02-20T06:29:38;22.85;;;11.68;;
65469;SDS011;52067;50.710;14.492;2023-02-20T06:32:04;25.15;;;11.43;;
65469;SDS011;52067;50.710;14.492;2023-02-20T06:34:29;22.65;;;11.02;;
65469;SDS011;52067;50.710;14.492;2023-02-20T06:36:57;19.60;;;9.65;;
65469;SDS011;52067;50.710;14.492;2023-02-20T06:39:23;25.55;;;12.63;;
65469;SDS011;52067;50.710;14.492;2023-02-20T06:41:49;28.13;;;12.50;;
65469;SDS011;52067;50.710;14.492;2023-02-20T06:44:14;33.33;;;14.88;;
65469;SDS011;52067;50.710;14.492;2023-02-20T06:46:40;55.60;;;15.35;;
65469;SDS011;52067;50.710;14.492;2023-02-20T06:49:05;33.97;;;14.60;;
65469;SDS011;52067;50.710;14.492;2023-02-20T06:51:32;39.83;;;15.73;;
65469;SDS011;52067;50.710;14.492;2023-02-20T06:53:58;40.58;;;17.95;;
65469;SDS011;52067;50.710;14.492;2023-02-20T06:56:26;48.42;;;21.35;;
65469;SDS011;52067;50.710;14.492;2023-02-20T06:58:53;51.45;;;24.90;;
65469;SDS011;52067;50.710;14.492;2023-02-20T07:01:20;51.65;;;23.85;;
65469;SDS011;52067;50.710;14.492;2023-02-20T07:03:47;50.13;;;22.23;;
65469;SDS011;52067;50.710;14.492;2023-02-20T07:06:14;42.28;;;16.95;;
65469;SDS011;52067;50.710;14.492;2023-02-20T07:08:40;46.22;;;19.15;;
65469;SDS011;52067;50.710;14.492;2023-02-20T07:11:05;48.38;;;18.77;;
65469;SDS011;52067;50.710;14.492;2023-02-20T07:13:31;27.08;;;11.57;;
65469;SDS011;52067;50.710;14.492;2023-02-20T07:15:56;22.95;;;9.80;;
65469;SDS011;52067;50.710;14.492;2023-02-20T07:18:22;24.52;;;9.73;;
65469;SDS011;52067;50.710;14.492;2023-02-20T07:20:51;20.00;;;9.82;;
65469;SDS011;52067;50.710;14.492;2023-02-20T07:23:19;23.60;;;11.60;;
65469;SDS011;52067;50.710;14.492;2023-02-20T07:25:45;29.65;;;12.13;;
65469;SDS011;52067;50.710;14.492;2023-02-20T07:28:12;31.17;;;14.25;;
65469;SDS011;52067;50.710;14.492;2023-02-20T07:30:37;36.05;;;14.10;;
65469;SDS011;52067;50.710;14.492;2023-02-20T07:33:03;28.30;;;13.48;;
65469;SDS011;52067;50.710;14.492;2023-02-20T07:35:28;29.48;;;12.32;;
65469;SDS011;52067;50.710;14.492;2023-02-20T07:37:54;20.20;;;10.80;;
65469;SDS011;52067;50.710;14.492;2023-02-20T07:40:19;25.08;;;11.32;;
65469;SDS011;52067;50.710;14.492;2023-02-20T07:42:45;20.15;;;10.18;;
65469;SDS011;52067;50.710;14.492;2023-02-20T07:45:10;20.33;;;9.27;;
65469;SDS011;52067;50.710;14.492;2023-02-20T07:47:35;17.02;;;9.05;;
65469;SDS011;52067;50.710;14.492;2023-02-20T07:50:01;17.20;;;8.38;;
65469;SDS011;52067;50.710;14.492;2023-02-20T07:52:26;16.30;;;8.18;;
65469;SDS011;52067;50.710;14.492;2023-02-20T07:54:52;21.35;;;9.88;;
65469;SDS011;52067;50.710;14.492;2023-02-20T07:57:17;41.00;;;15.23;;
65469;SDS011;52067;50.710;14.492;2023-02-20T07:59:42;39.30;;;14.20;;
65469;SDS011;52067;50.710;14.492;2023-02-20T08:02:08;29.45;;;14.10;;
65469;SDS011;52067;50.710;14.492;2023-02-20T08:04:33;25.30;;;11.07;;
65469;SDS011;52067;50.710;14.492;2023-02-20T08:06:59;26.45;;;12.50;;
65469;SDS011;52067;50.710;14.492;2023-02-20T08:09:24;17.20;;;8.98;;
65469;SDS011;52067;50.710;14.492;2023-02-20T08:11:50;20.67;;;10.40;;
65469;SDS011;52067;50.710;14.492;2023-02-20T08:14:15;23.45;;;11.02;;
65469;SDS011;52067;50.710;14.492;2023-02-20T08:16:41;21.50;;;10.15;;
65469;SDS011;52067;50.710;14.492;2023-02-20T08:19:06;21.27;;;10.48;;
65469;SDS011;52067;50.710;14.492;2023-02-20T08:21:31;23.13;;;11.15;;
65469;SDS011;52067;50.710;14.492;2023-02-20T08:23:57;18.42;;;8.60;;
65469;SDS011;52067;50.710;14.492;2023-02-20T08:26:22;19.63;;;10.43;;
65469;SDS011;52067;50.710;14.492;2023-02-20T08:28:48;22.45;;;11.00;;
65469;SDS011;52067;50.710;14.492;2023-02-20T08:31:14;21.27;;;9.85;;
65469;SDS011;52067;50.710;14.492;2023-02-20T08:33:39;23.05;;;10.20;;
65469;SDS011;52067;50.710;14.492;2023-02-20T08:36:05;18.42;;;9.05;;
65469;SDS011;52067;50.710;14.492;2023-02-20T08:38:34;17.63;;;8.88;;
65469;SDS011;52067;50.710;14.492;2023-02-20T08:41:02;16.95;;;9.20;;
65469;SDS011;52067;50.710;14.492;2023-02-20T08:43:29;17.08;;;9.48;;
65469;SDS011;52067;50.710;14.492;2023-02-20T08:45:54;22.70;;;11.07;;
65469;SDS011;52067;50.710;14.492;2023-02-20T08:48:20;23.88;;;10.75;;
65469;SDS011;52067;50.710;14.492;2023-02-20T08:50:45;18.83;;;9.80;;
65469;SDS011;52067;50.710;14.492;2023-02-20T08:53:11;18.70;;;10.73;;
65469;SDS011;52067;50.710;14.492;2023-02-20T08:55:38;17.88;;;10.07;;
65469;SDS011;52067;50.710;14.492;2023-02-20T08:58:03;16.20;;;9.23;;
65469;SDS011;52067;50.710;14.492;2023-02-20T09:00:29;19.50;;;9.57;;
65469;SDS011;52067;50.710;14.492;2023-02-20T09:02:54;17.85;;;8.73;;
65469;SDS011;52067;50.710;14.492;2023-02-20T09:05:20;17.67;;;8.90;;
65469;SDS011;52067;50.710;14.492;2023-02-20T09:07:45;20.77;;;9.50;;
65469;SDS011;52067;50.710;14.492;2023-02-20T09:10:11;17.73;;;8.80;;
65469;SDS011;52067;50.710;14.492;2023-02-20T09:12:36;17.67;;;8.45;;
65469;SDS011;52067;50.710;14.492;2023-02-20T09:15:06;16.58;;;8.90;;
65469;SDS011;52067;50.710;14.492;2023-02-20T09:17:32;15.85;;;8.45;;
65469;SDS011;52067;50.710;14.492;2023-02-20T09:19:58;16.38;;;8.20;;
65469;SDS011;52067;50.710;14.492;2023-02-20T09:22:23;15.85;;;8.73;;
65469;SDS011;52067;50.710;14.492;2023-02-20T09:24:49;18.52;;;8.43;;
65469;SDS011;52067;50.710;14.492;2023-02-20T09:27:15;15.85;;;8.48;;
65469;SDS011;52067;50.710;14.492;2023-02-20T09:29:41;12.15;;;7.15;;
65469;SDS011;52067;50.710;14.492;2023-02-20T09:32:08;11.95;;;7.05;;
65469;SDS011;52067;50.710;14.492;2023-02-20T09:34:34;11.48;;;6.53;;
65469;SDS011;52067;50.710;14.492;2023-02-20T09:36:59;11.02;;;6.30;;
65469;SDS011;52067;50.710;14.492;2023-02-20T09:39:24;12.65;;;6.82;;
65469;SDS011;52067;50.710;14.492;2023-02-20T09:50:13;9.48;;;5.53;;
65469;SDS011;52067;50.710;14.492;2023-02-20T09:52:43;10.23;;;5.95;;
65469;SDS011;52067;50.710;14.492;2023-02-20T09:55:18;8.02;;;4.97;;
65469;SDS011;52067;50.710;14.492;2023-02-20T09:57:47;7.50;;;4.45;;
65469;SDS011;52067;50.710;14.492;2023-02-20T10:00:21;10.45;;;6.00;;
65469;SDS011;52067;50.710;14.492;2023-02-20T10:02:56;11.40;;;5.70;;
65469;SDS011;52067;50.710;14.492;2023-02-20T10:05:26;11.57;;;6.22;;
65469;SDS011;52067;50.710;14.492;2023-02-20T10:07:53;8.60;;;4.78;;
65469;SDS011;52067;50.710;14.492;2023-02-20T10:10:20;9.68;;;5.15;;
65469;SDS011;52067;50.710;14.492;2023-02-20T10:15:25;7.45;;;4.55;;
65469;SDS011;52067;50.710;14.492;2023-02-20T10:18:18;10.70;;;5.32;;
65469;SDS011;52067;50.710;14.492;2023-02-20T10:21:06;10.15;;;4.63;;
65469;SDS011;52067;50.710;14.492;2023-02-20T10:26:22;11.40;;;5.32;;
65469;SDS011;52067;50.710;14.492;2023-02-20T10:28:52;10.60;;;5.18;;
65469;SDS011;52067;50.710;14.492;2023-02-20T10:34:08;7.68;;;4.22;;
65469;SDS011;52067;50.710;14.492;2023-02-20T10:36:43;7.32;;;3.72;;
65469;SDS011;52067;50.710;14.492;2023-02-20T10:39:16;9.50;;;4.45;;
65469;SDS011;52067;50.710;14.492;2023-02-20T10:42:03;7.50;;;4.05;;
65469;SDS011;52067;50.710;14.492;2023-02-20T10:44:55;7.63;;;3.95;;
65469;SDS011;52067;50.710;14.492;2023-02-20T10:52:47;6.88;;;3.60;;
65469;SDS011;52067;50.710;14.492;2023-02-20T10:58:20;6.00;;;3.28;;
65469;SDS011;52067;50.710;14.492;2023-02-20T11:00:54;5.78;;;3.40;;
65469;SDS011;52067;50.710;14.492;2023-02-20T11:03:24;7.22;;;3.10;;
65469;SDS011;52067;50.710;14.492;2023-02-20T11:08:35;5.38;;;3.40;;
65469;SDS011;52067;50.710;14.492;2023-02-20T11:11:16;5.72;;;3.20;;
65469;SDS011;52067;50.710;14.492;2023-02-20T11:13:49;8.23;;;3.15;;
65469;SDS011;52067;50.710;14.492;2023-02-20T11:16:22;7.75;;;3.40;;
65469;SDS011;52067;50.710;14.492;2023-02-20T11:21:46;5.43;;;2.75;;
65469;SDS011;52067;50.710;14.492;2023-02-20T11:24:24;6.75;;;3.47;;
65469;SDS011;52067;50.710;14.492;2023-02-20T11:27:00;7.57;;;3.30;;
65469;SDS011;52067;50.710;14.492;2023-02-20T11:32:29;6.90;;;3.03;;
65469;SDS011;52067;50.710;14.492;2023-02-20T11:37:44;4.40;;;2.80;;
65469;SDS011;52067;50.710;14.492;2023-02-20T11:40:20;5.25;;;3.13;;
65469;SDS011;52067;50.710;14.492;2023-02-20T11:42:55;5.05;;;2.75;;
65469;SDS011;52067;50.710;14.492;2023-02-20T11:45:22;9.95;;;2.90;;
65469;SDS011;52067;50.710;14.492;2023-02-20T11:48:05;4.93;;;2.90;;
65469;SDS011;52067;50.710;14.492;2023-02-20T11:50:39;5.50;;;2.87;;
65469;SDS011;52067;50.710;14.492;2023-02-20T11:55:44;5.65;;;3.10;;
65469;SDS011;52067;50.710;14.492;2023-02-20T11:58:22;5.45;;;2.97;;
65469;SDS011;52067;50.710;14.492;2023-02-20T12:03:54;7.13;;;3.47;;
65469;SDS011;52067;50.710;14.492;2023-02-20T12:08:56;7.40;;;3.72;;
65469;SDS011;52067;50.710;14.492;2023-02-20T12:11:24;5.05;;;3.28;;
65469;SDS011;52067;50.710;14.492;2023-02-20T12:13:52;6.45;;;3.22;;
65469;SDS011;52067;50.710;14.492;2023-02-20T12:43:35;4.13;;;2.80;;
65469;SDS011;52067;50.710;14.492;2023-02-20T12:46:29;6.78;;;2.25;;
65469;SDS011;52067;50.710;14.492;2023-02-20T12:54:47;5.53;;;2.60;;
65469;SDS011;52067;50.710;14.492;2023-02-20T13:00:13;4.03;;;2.13;;
65469;SDS011;52067;50.710;14.492;2023-02-20T13:08:42;3.08;;;2.08;;
65469;SDS011;52067;50.710;14.492;2023-02-20T13:11:29;6.40;;;2.42;;
65469;SDS011;52067;50.710;14.492;2023-02-20T13:16:50;2.60;;;1.80;;
65469;SDS011;52067;50.710;14.492;2023-02-20T14:04:55;6.03;;;1.30;;
65469;SDS011;52067;50.710;14.492;2023-02-20T14:07:26;4.05;;;1.60;;
65469;SDS011;52067;50.710;14.492;2023-02-20T14:10:38;2.15;;;1.20;;
65469;SDS011;52067;50.710;14.492;2023-02-20T14:15:52;2.13;;;1.27;;
65469;SDS011;52067;50.710;14.492;2023-02-20T14:18:23;1.90;;;1.27;;
65469;SDS011;52067;50.710;14.492;2023-02-20T14:20:50;2.10;;;1.25;;
65469;SDS011;52067;50.710;14.492;2023-02-20T14:23:38;3.08;;;1.40;;
65469;SDS011;52067;50.710;14.492;2023-02-20T14:26:05;1.23;;;1.10;;
65469;SDS011;52067;50.710;14.492;2023-02-20T14:28:45;2.53;;;1.48;;
65469;SDS011;52067;50.710;14.492;2023-02-20T14:33:48;2.67;;;1.48;;
65469;SDS011;52067;50.710;14.492;2023-02-20T14:36:19;3.08;;;1.10;;
65469;SDS011;52067;50.710;14.492;2023-02-20T14:42:05;2.55;;;1.30;;
65469;SDS011;52067;50.710;14.492;2023-02-20T14:44:39;2.33;;;1.20;;
65469;SDS011;52067;50.710;14.492;2023-02-20T14:47:11;2.83;;;1.40;;
65469;SDS011;52067;50.710;14.492;2023-02-20T14:49:39;2.33;;;1.10;;
65469;SDS011;52067;50.710;14.492;2023-02-20T14:52:17;3.97;;;1.52;;
65469;SDS011;52067;50.710;14.492;2023-02-20T14:54:55;3.53;;;1.48;;
65469;SDS011;52067;50.710;14.492;2023-02-20T14:57:22;2.85;;;1.30;;
65469;SDS011;52067;50.710;14.492;2023-02-20T14:59:48;3.67;;;1.48;;
65469;SDS011;52067;50.710;14.492;2023-02-20T15:02:14;3.50;;;1.30;;
65469;SDS011;52067;50.710;14.492;2023-02-20T15:04:46;2.20;;;1.33;;
65469;SDS011;52067;50.710;14.492;2023-02-20T15:07:13;2.08;;;1.25;;
65469;SDS011;52067;50.710;14.492;2023-02-20T15:09:42;1.92;;;1.23;;
65469;SDS011;52067;50.710;14.492;2023-02-20T15:12:20;1.98;;;1.15;;
65469;SDS011;52067;50.710;14.492;2023-02-20T15:14:57;4.63;;;1.58;;
65469;SDS011;52067;50.710;14.492;2023-02-20T15:17:35;2.45;;;1.48;;
65469;SDS011;52067;50.710;14.492;2023-02-20T15:22:40;3.10;;;1.40;;
65469;SDS011;52067;50.710;14.492;2023-02-20T15:27:37;2.40;;;1.50;;
65469;SDS011;52067;50.710;14.492;2023-02-20T15:30:07;2.28;;;1.60;;
65469;SDS011;52067;50.710;14.492;2023-02-20T15:32:40;1.80;;;1.20;;
65469;SDS011;52067;50.710;14.492;2023-02-20T15:35:14;3.72;;;2.10;;
65469;SDS011;52067;50.710;14.492;2023-02-20T15:42:43;1.00;;;0.90;;
65469;SDS011;52067;50.710;14.492;2023-02-20T15:45:11;1.52;;;1.20;;
65469;SDS011;52067;50.710;14.492;2023-02-20T15:47:37;2.10;;;1.42;;
65469;SDS011;52067;50.710;14.492;2023-02-20T15:50:02;4.03;;;1.98;;
65469;SDS011;52067;50.710;14.492;2023-02-20T15:52:28;9.38;;;4.63;;
65469;SDS011;52067;50.710;14.492;2023-02-20T15:54:55;4.60;;;2.45;;
65469;SDS011;52067;50.710;14.492;2023-02-20T15:57:21;2.85;;;1.60;;
65469;SDS011;52067;50.710;14.492;2023-02-20T15:59:47;4.18;;;1.80;;
65469;SDS011;52067;50.710;14.492;2023-02-20T16:02:14;4.15;;;2.42;;
65469;SDS011;52067;50.710;14.492;2023-02-20T16:04:45;6.68;;;2.88;;
65469;SDS011;52067;50.710;14.492;2023-02-20T16:07:16;6.22;;;3.25;;
65469;SDS011;52067;50.710;14.492;2023-02-20T16:09:43;2.67;;;1.73;;
65469;SDS011;52067;50.710;14.492;2023-02-20T16:12:11;5.00;;;1.55;;
65469;SDS011;52067;50.710;14.492;2023-02-20T16:14:40;5.20;;;2.55;;
65469;SDS011;52067;50.710;14.492;2023-02-20T16:17:08;1.90;;;1.23;;
65469;SDS011;52067;50.710;14.492;2023-02-20T16:19:39;1.40;;;1.17;;
65469;SDS011;52067;50.710;14.492;2023-02-20T16:22:05;2.88;;;1.33;;
65469;SDS011;52067;50.710;14.492;2023-02-20T16:24:30;4.25;;;1.90;;
65469;SDS011;52067;50.710;14.492;2023-02-20T16:26:59;5.53;;;2.67;;
65469;SDS011;52067;50.710;14.492;2023-02-20T16:29:27;2.15;;;1.52;;
65469;SDS011;52067;50.710;14.492;2023-02-20T16:34:26;11.10;;;3.13;;
65469;SDS011;52067;50.710;14.492;2023-02-20T16:36:55;10.93;;;4.18;;
65469;SDS011;52067;50.710;14.492;2023-02-20T16:39:21;3.67;;;1.88;;
65469;SDS011;52067;50.710;14.492;2023-02-20T16:41:47;4.20;;;2.33;;
65469;SDS011;52067;50.710;14.492;2023-02-20T16:46:56;3.50;;;1.60;;
65469;SDS011;52067;50.710;14.492;2023-02-20T16:49:21;2.40;;;1.40;;
65469;SDS011;52067;50.710;14.492;2023-02-20T16:51:47;2.88;;;1.80;;
65469;SDS011;52067;50.710;14.492;2023-02-20T16:54:15;2.13;;;1.52;;
65469;SDS011;52067;50.710;14.492;2023-02-20T16:56:40;2.72;;;1.58;;
65469;SDS011;52067;50.710;14.492;2023-02-20T16:59:06;1.63;;;1.30;;
65469;SDS011;52067;50.710;14.492;2023-02-20T17:01:33;4.65;;;2.22;;
65469;SDS011;52067;50.710;14.492;2023-02-20T17:03:59;5.03;;;1.60;;
65469;SDS011;52067;50.710;14.492;2023-02-20T17:06:24;5.95;;;1.42;;
65469;SDS011;52067;50.710;14.492;2023-02-20T17:08:54;3.08;;;1.58;;
65469;SDS011;52067;50.710;14.492;2023-02-20T17:11:20;4.50;;;2.25;;
65469;SDS011;52067;50.710;14.492;2023-02-20T17:13:45;2.75;;;1.52;;
65469;SDS011;52067;50.710;14.492;2023-02-20T17:16:11;4.57;;;2.05;;
65469;SDS011;52067;50.710;14.492;2023-02-20T17:18:36;4.57;;;2.33;;
65469;SDS011;52067;50.710;14.492;2023-02-20T17:21:01;3.33;;;2.10;;
65469;SDS011;52067;50.710;14.492;2023-02-20T17:23:27;3.80;;;2.28;;
65469;SDS011;52067;50.710;14.492;2023-02-20T17:25:52;4.13;;;1.45;;
65469;SDS011;52067;50.710;14.492;2023-02-20T17:28:22;3.72;;;1.80;;
65469;SDS011;52067;50.710;14.492;2023-02-20T17:30:50;5.65;;;2.80;;
65469;SDS011;52067;50.710;14.492;2023-02-20T17:33:18;3.15;;;1.95;;
65469;SDS011;52067;50.710;14.492;2023-02-20T17:35:47;5.20;;;3.22;;
65469;SDS011;52067;50.710;14.492;2023-02-20T17:38:13;4.75;;;1.85;;
65469;SDS011;52067;50.710;14.492;2023-02-20T17:40:43;6.72;;;4.05;;
65469;SDS011;52067;50.710;14.492;2023-02-20T17:43:08;4.28;;;2.53;;
65469;SDS011;52067;50.710;14.492;2023-02-20T17:45:36;3.75;;;2.28;;